Hlavní strana
METAR-TAF:

METAR-TAF

Letiště :

Drážďany, Německo

Letiště Drážďany

zeměpisná šířka: 51-08N, zeměpisná délka: 013-45E, výška: 230 m

Aktuální stav počasí

Zpráva byla vytvořena před 20 hodinami a 35 minutami, v 14:50 UTC
Východoseverovýchodní vítr 8 kt
Teplota 2°C
Vlhkost vzduchu 64%
Tlak 1017 hPa
Viditelnost: 8000 m

METAR: EDDC 201450Z 06008KT 8000 NSC 02/M04 Q1017 NOSIG

Čas: 12:25 (11:25 UTC)

Předpověď počasí

Zpráva byla vytvořena před 25 minutami, v 11:00 UTC
Předpověď platná od 20 v 12 UTC do 21 v 12 UTC
Východoseverovýchodní vítr 7 kt
Viditelnost 10 km a více
Žádná oblačnost pod 1500 m, nevyskytují se cumulonimby.
Změna
od 20 v 20 UTC do 20 v 22 UTC
Severní vítr 6 kt
Změna
od 21 v 04 UTC do 21 v 06 UTC
Viditelnost: 4500 m
kouřmo
Změna
od 21 v 06 UTC do 21 v 08 UTC
Viditelnost: 9000 m

TAF: EDDC 201100Z 2012/2112 07007KT CAVOK BECMG 2020/2022 01006KT BECMG 2104/2106 4500 BR BECMG 2106/2108 9000

Stav a předpovědi počasí z více než 4 000 letišť (zprávy METAR a TAF).

Červené a žluté tečky na mapě představují dostupné meteorologické stanice.

Když kurzor umístíte na tečku, zobrazí se název stanice.

Pak kliknutím zobrazíte stav a předpověď počasí.

Chcete-li změnit mapu, kliknutím na zelené tlačítko se znaménkem +mapu přiblížíte, kliknutím na zelené tlačítko se znaménkem – mapu oddálíte a kliknutím na zelené šipky přejdete na sousední mapy.


METAR-TAF: